createdAt,value
2022-10-12T00:02:06.960Z,98809.31
2022-10-12T00:06:18.128Z,98812.75
2022-10-12T00:10:20.119Z,98815.38
2022-10-12T00:14:22.148Z,98811.16
2022-10-12T00:18:24.202Z,98815.59
2022-10-12T00:22:26.269Z,98826.00
2022-10-12T00:26:29.555Z,98820.75
2022-10-12T00:30:31.723Z,98827.66
2022-10-12T00:34:33.771Z,98822.47
2022-10-12T00:38:35.773Z,98824.19
2022-10-12T00:42:37.769Z,98824.16
2022-10-12T00:46:44.835Z,98824.09
2022-10-12T00:50:46.963Z,98824.16
2022-10-12T00:54:51.005Z,98814.69
2022-10-12T00:58:54.883Z,98816.41
2022-10-12T01:02:58.129Z,98820.72
2022-10-12T01:07:00.875Z,98818.16
2022-10-12T01:11:03.909Z,98822.44
2022-10-12T01:15:06.716Z,98828.50
2022-10-12T01:19:34.186Z,98822.53
2022-10-12T01:23:55.278Z,98821.69
2022-10-12T01:28:11.813Z,98816.56
2022-10-12T01:32:21.768Z,98818.34
2022-10-12T01:36:37.256Z,98814.00
2022-10-12T01:40:50.985Z,98810.50
2022-10-12T01:45:08.419Z,98814.81
2022-10-12T01:49:10.904Z,98807.00
2022-10-12T01:53:33.213Z,98792.38
2022-10-12T01:58:04.689Z,98797.56
2022-10-12T02:02:19.018Z,98790.69
2022-10-12T02:06:24.269Z,98790.69
2022-10-12T02:10:38.901Z,98788.09
2022-10-12T02:14:46.785Z,98782.03
2022-10-12T02:18:52.602Z,98787.25
2022-10-12T02:22:55.011Z,98779.47
2022-10-12T02:26:58.257Z,98782.06
2022-10-12T02:31:09.272Z,98779.44
2022-10-12T02:35:25.261Z,98768.28
2022-10-12T02:39:32.463Z,98756.19
2022-10-12T02:43:36.851Z,98766.56
2022-10-12T02:47:40.591Z,98764.81
2022-10-12T02:51:44.603Z,98763.94
2022-10-12T02:55:56.047Z,98760.50
2022-10-12T02:59:58.041Z,98764.81
2022-10-12T03:04:00.031Z,98755.31
2022-10-12T03:08:01.996Z,98755.31
2022-10-12T03:12:04.071Z,98759.59
2022-10-12T03:16:11.339Z,98763.03
2022-10-12T03:20:13.625Z,98760.44
2022-10-12T03:24:15.598Z,98757.84
2022-10-12T03:28:17.718Z,98758.75
2022-10-12T03:32:19.729Z,98753.56
2022-10-12T03:36:21.739Z,98754.44
2022-10-12T03:40:23.704Z,98751.84
2022-10-12T03:44:25.783Z,98750.13
2022-10-12T03:48:27.836Z,98748.41
2022-10-12T03:52:29.847Z,98746.69
2022-10-12T03:56:31.882Z,98738.91
2022-10-12T04:00:33.941Z,98742.38
2022-10-12T04:04:35.981Z,98746.69
2022-10-12T04:08:40.152Z,98751.84
2022-10-12T04:12:42.337Z,98743.22
2022-10-12T04:16:44.297Z,98755.34
2022-10-12T04:20:49.948Z,98749.31
2022-10-12T04:24:52.031Z,98749.28
2022-10-12T04:28:54.122Z,98743.22
2022-10-12T04:32:56.444Z,98749.28
2022-10-12T04:36:58.422Z,98746.69
2022-10-12T04:41:00.415Z,98744.13
2022-10-12T04:45:02.587Z,98750.16
2022-10-12T04:49:04.669Z,98748.41
2022-10-12T04:53:06.674Z,98749.28
2022-10-12T04:57:08.769Z,98748.41
2022-10-12T05:01:11.110Z,98756.22
2022-10-12T05:05:13.184Z,98757.06
2022-10-12T05:09:17.066Z,98749.31
2022-10-12T05:13:19.451Z,98752.78
2022-10-12T05:17:21.407Z,98749.31
2022-10-12T05:21:23.416Z,98751.03
2022-10-12T05:25:25.673Z,98745.88
2022-10-12T05:29:27.658Z,98751.88
2022-10-12T05:33:29.938Z,98742.38
2022-10-12T05:37:33.281Z,98743.25
2022-10-12T05:41:35.283Z,98738.06
2022-10-12T05:45:37.333Z,98745.88
2022-10-12T05:49:39.359Z,98738.09
2022-10-12T05:53:41.480Z,98741.53
2022-10-12T05:57:44.325Z,98746.72
2022-10-12T06:01:49.782Z,98746.69
2022-10-12T06:05:51.913Z,98738.91
2022-10-12T06:09:54.219Z,98748.41
2022-10-12T06:13:56.209Z,98746.63
2022-10-12T06:17:58.289Z,98739.66
2022-10-12T06:22:00.292Z,98737.94
2022-10-12T06:26:02.470Z,98731.78
2022-10-12T06:30:05.122Z,98728.19
2022-10-12T06:34:07.163Z,98725.44
2022-10-12T06:38:09.276Z,98724.47
2022-10-12T06:42:11.868Z,98736.34
2022-10-12T06:46:24.408Z,98729.22
2022-10-12T06:50:26.792Z,98737.66
2022-10-12T06:54:28.776Z,98729.59
2022-10-12T06:58:30.768Z,98736.31
2022-10-12T07:02:33.676Z,98734.41
2022-10-12T07:06:35.704Z,98735.94
2022-10-12T07:10:37.663Z,98735.03
2022-10-12T07:14:39.821Z,98734.94
2022-10-12T07:18:41.997Z,98728.72
2022-10-12T07:22:44.558Z,98732.81
2022-10-12T07:26:46.573Z,98727.47
2022-10-12T07:30:48.748Z,98729.16
2022-10-12T07:34:50.800Z,98731.78
2022-10-12T07:38:52.964Z,98733.41
2022-10-12T07:43:23.315Z,98738.41
2022-10-12T07:47:17.750Z,98748.53
2022-10-12T07:51:19.874Z,98743.91
2022-10-12T07:55:21.901Z,98747.97
2022-10-12T07:59:24.148Z,98750.28
2022-10-12T08:03:26.197Z,98749.97
2022-10-12T08:07:28.190Z,98742.63
2022-10-12T08:11:30.320Z,98742.19
2022-10-12T08:15:32.340Z,98735.66
2022-10-12T08:19:36.372Z,98735.25
2022-10-12T08:23:39.057Z,98740.03
2022-10-12T08:27:41.535Z,98735.19
2022-10-12T08:31:43.649Z,98734.75
2022-10-12T08:35:47.760Z,98729.94
2022-10-12T08:39:49.786Z,98728.56
2022-10-12T08:44:04.163Z,98730.66
2022-10-12T08:48:12.354Z,98728.34
2022-10-12T08:52:41.480Z,98734.69
2022-10-12T08:56:44.745Z,98733.22
2022-10-12T09:00:50.663Z,98733.63
2022-10-12T09:05:01.396Z,98732.94
2022-10-12T09:09:15.684Z,98734.69
2022-10-12T09:13:26.746Z,98726.97
2022-10-12T09:17:47.465Z,98732.34
2022-10-12T09:21:50.191Z,98738.69
2022-10-12T09:25:56.889Z,98728.56
2022-10-12T09:30:05.364Z,98723.53
2022-10-12T09:34:09.541Z,98727.06
2022-10-12T09:38:11.913Z,98711.53
2022-10-12T09:42:13.918Z,98715.31
2022-10-12T09:46:19.747Z,98719.16
2022-10-12T09:50:40.850Z,98716.84
2022-10-12T09:54:53.584Z,98718.06
2022-10-12T09:59:05.545Z,98718.38
2022-10-12T10:03:27.876Z,98713.53
2022-10-12T10:07:35.804Z,98712.09
2022-10-12T10:11:37.795Z,98707.13
2022-10-12T10:15:40.250Z,98717.13
2022-10-12T10:19:49.279Z,98718.50
2022-10-12T10:23:54.423Z,98711.94
2022-10-12T10:28:27.770Z,98708.72
2022-10-12T10:32:31.542Z,98708.16
2022-10-12T10:36:40.717Z,98701.50
2022-10-12T10:40:42.782Z,98696.66
2022-10-12T10:44:59.908Z,98694.25
2022-10-12T10:49:08.942Z,98690.59
2022-10-12T10:53:25.169Z,98692.41
2022-10-12T10:57:27.781Z,98693.63
2022-10-12T11:01:50.369Z,98690.34
2022-10-12T11:06:08.791Z,98675.44
2022-10-12T11:10:19.072Z,98689.44
2022-10-12T11:14:28.662Z,98682.19
2022-10-12T11:18:44.651Z,98667.41
2022-10-12T11:23:04.946Z,98658.88
2022-10-12T11:27:12.560Z,98658.84
2022-10-12T11:31:20.081Z,98654.88
2022-10-12T11:35:28.155Z,98646.53
2022-10-12T11:39:34.578Z,98651.47
2022-10-12T11:43:44.286Z,98648.19
2022-10-12T11:47:49.167Z,98642.38
2022-10-12T11:51:55.419Z,98633.97
2022-10-12T11:56:09.906Z,98620.16
2022-10-12T12:00:23.823Z,98620.56
2022-10-12T12:04:47.472Z,98618.75
2022-10-12T12:09:17.712Z,98619.63
2022-10-12T12:13:23.240Z,98621.63
2022-10-12T12:17:31.686Z,98619.75
2022-10-12T12:22:12.541Z,98615.63
2022-10-12T12:26:17.872Z,98613.50
2022-10-12T12:30:19.847Z,98619.09
2022-10-12T12:34:22.824Z,98614.53
2022-10-12T12:38:30.878Z,98608.75
2022-10-12T12:42:34.198Z,98599.53
2022-10-12T12:46:54.315Z,98607.78
2022-10-12T12:50:59.624Z,98612.72
2022-10-12T12:55:18.512Z,98602.97
2022-10-12T12:59:48.147Z,98601.34
2022-10-12T13:04:03.306Z,98603.25
2022-10-12T13:08:11.365Z,98603.28
2022-10-12T13:12:39.862Z,98597.38
2022-10-12T13:21:25.770Z,98590.94
2022-10-12T13:25:43.751Z,98583.34
2022-10-12T13:29:53.078Z,98589.78
2022-10-12T13:34:11.672Z,98578.25
2022-10-12T13:38:26.343Z,98578.91
2022-10-12T13:42:33.634Z,98580.16
2022-10-12T13:46:46.152Z,98581.94
2022-10-12T13:51:00.224Z,98573.06
2022-10-12T13:55:15.197Z,98576.16
2022-10-12T13:59:21.218Z,98573.72
2022-10-12T14:03:34.206Z,98576.38
2022-10-12T14:07:38.608Z,98581.09
2022-10-12T14:11:42.660Z,98566.91
2022-10-12T14:15:44.926Z,98575.50
2022-10-12T14:19:51.301Z,98577.41
2022-10-12T14:23:54.583Z,98574.44
2022-10-12T14:28:01.630Z,98569.00
2022-10-12T14:32:26.423Z,98556.44
2022-10-12T14:36:29.094Z,98553.38
2022-10-12T14:40:41.927Z,98548.41
2022-10-12T14:44:44.275Z,98550.41
2022-10-12T14:48:46.274Z,98543.38
2022-10-12T14:52:51.533Z,98542.22
2022-10-12T14:56:53.555Z,98545.47
2022-10-12T15:00:56.765Z,98549.53
2022-10-12T15:04:59.666Z,98550.75
2022-10-12T15:09:01.755Z,98552.88
2022-10-12T15:13:03.938Z,98559.97
2022-10-12T15:17:05.985Z,98556.47
2022-10-12T15:21:08.751Z,98550.31
2022-10-12T15:25:22.247Z,98545.22
2022-10-12T15:29:24.553Z,98539.50
2022-10-12T15:33:26.566Z,98537.28
2022-10-12T15:37:31.267Z,98536.09
2022-10-12T15:41:33.367Z,98536.63
2022-10-12T15:45:38.433Z,98531.75
2022-10-12T15:49:40.430Z,98526.25
2022-10-12T15:53:44.734Z,98520.88
2022-10-12T15:57:47.036Z,98527.00
2022-10-12T16:01:49.080Z,98516.06
2022-10-12T16:05:51.069Z,98506.75
2022-10-12T16:09:53.170Z,98512.63
2022-10-12T16:13:56.886Z,98509.44
2022-10-12T16:18:00.739Z,98520.31
2022-10-12T16:22:04.735Z,98514.59
2022-10-12T16:26:11.755Z,98505.53
2022-10-12T16:30:14.564Z,98516.69
2022-10-12T16:34:16.616Z,98509.34
2022-10-12T16:38:20.221Z,98515.09
2022-10-12T16:42:22.895Z,98523.53
2022-10-12T16:46:24.994Z,98523.28
2022-10-12T16:50:27.132Z,98517.66
2022-10-12T16:54:29.273Z,98521.72
2022-10-12T16:58:31.418Z,98516.03
2022-10-12T17:02:33.445Z,98520.94
2022-10-12T17:06:35.509Z,98521.66
2022-10-12T17:10:42.698Z,98521.66
2022-10-12T17:14:44.723Z,98515.22
2022-10-12T17:18:46.703Z,98514.94
2022-10-12T17:22:48.690Z,98521.47
2022-10-12T17:26:51.036Z,98521.22
2022-10-12T17:30:53.052Z,98536.78
2022-10-12T17:34:55.720Z,98529.66
2022-10-12T17:38:58.786Z,98529.78
2022-10-12T17:43:00.773Z,98537.88
2022-10-12T17:47:02.904Z,98530.44
2022-10-12T17:51:09.582Z,98530.69
2022-10-12T17:55:29.631Z,98528.66
2022-10-12T17:59:33.596Z,98515.53
2022-10-12T18:03:35.808Z,98526.38
2022-10-12T18:07:38.476Z,98531.50
2022-10-12T18:11:40.626Z,98535.16
2022-10-12T18:15:43.775Z,98529.53
2022-10-12T18:19:47.071Z,98519.50
2022-10-12T18:23:50.040Z,98521.75
2022-10-12T18:27:52.411Z,98522.19
2022-10-12T18:31:54.390Z,98510.38
2022-10-12T18:36:04.824Z,98511.53
2022-10-12T18:40:07.469Z,98508.78
2022-10-12T18:44:10.759Z,98506.38
2022-10-12T18:48:13.453Z,98522.22
2022-10-12T18:52:15.740Z,98507.56
2022-10-12T18:56:18.544Z,98513.13
2022-10-12T19:00:20.674Z,98525.53
2022-10-12T19:04:22.777Z,98514.63
2022-10-12T19:08:24.772Z,98525.94
2022-10-12T19:12:26.795Z,98525.41
2022-10-12T19:16:29.879Z,98524.44
2022-10-12T19:20:32.629Z,98527.09
2022-10-12T19:24:34.807Z,98539.03
2022-10-12T19:28:36.989Z,98526.47
2022-10-12T19:32:39.047Z,98525.75
2022-10-12T19:36:41.545Z,98524.00
2022-10-12T19:40:43.704Z,98537.84
2022-10-12T19:44:45.741Z,98534.38
2022-10-12T19:48:50.524Z,98543.97
2022-10-12T19:52:52.599Z,98543.50
2022-10-12T19:56:54.596Z,98537.66
2022-10-12T20:01:01.124Z,98539.78
2022-10-12T20:05:03.340Z,98537.22
2022-10-12T20:09:07.486Z,98536.31
2022-10-12T20:13:09.496Z,98532.16
2022-10-12T20:17:11.536Z,98539.97
2022-10-12T20:21:16.355Z,98532.66
2022-10-12T20:25:18.437Z,98522.34
2022-10-12T20:29:20.489Z,98532.81
2022-10-12T20:33:22.552Z,98525.22
2022-10-12T20:37:24.705Z,98526.59
2022-10-12T20:41:27.814Z,98539.56
2022-10-12T20:45:29.871Z,98535.94
2022-10-12T20:49:31.860Z,98524.41
2022-10-12T20:53:34.315Z,98528.84
2022-10-12T20:57:36.483Z,98534.31
2022-10-12T21:01:38.513Z,98543.81
2022-10-12T21:05:40.591Z,98539.69
2022-10-12T21:09:42.781Z,98523.69
2022-10-12T21:13:45.956Z,98536.88
2022-10-12T21:17:47.975Z,98543.00
2022-10-12T21:21:49.951Z,98538.75
2022-10-12T21:25:52.734Z,98531.19
2022-10-12T21:29:54.788Z,98530.63
2022-10-12T21:33:56.788Z,98516.97
2022-10-12T21:37:58.780Z,98524.09
2022-10-12T21:42:00.819Z,98513.75
2022-10-12T21:46:11.832Z,98516.47
2022-10-12T21:50:13.892Z,98510.59
2022-10-12T21:54:15.893Z,98511.69
2022-10-12T21:58:17.986Z,98507.38
2022-10-12T22:02:20.276Z,98512.94
2022-10-12T22:06:24.416Z,98498.34
2022-10-12T22:10:26.602Z,98509.13
2022-10-12T22:14:28.657Z,98500.56
2022-10-12T22:18:30.765Z,98506.75
2022-10-12T22:22:33.109Z,98507.03
2022-10-12T22:26:35.366Z,98514.31
2022-10-12T22:30:40.681Z,98510.16
2022-10-12T22:34:42.696Z,98509.44
2022-10-12T22:38:44.943Z,98515.72
2022-10-12T22:42:46.920Z,98511.53
2022-10-12T22:46:48.986Z,98509.16
2022-10-12T22:50:52.240Z,98504.03
2022-10-12T22:54:54.299Z,98507.47
2022-10-12T22:58:58.445Z,98508.25
2022-10-12T23:03:00.461Z,98502.34
2022-10-12T23:07:02.497Z,98504.13
2022-10-12T23:11:10.496Z,98505.00
2022-10-12T23:15:12.518Z,98515.41
2022-10-12T23:19:16.332Z,98519.22
2022-10-12T23:23:18.425Z,98507.97
2022-10-12T23:27:20.419Z,98517.69
2022-10-12T23:31:25.726Z,98504.81
2022-10-12T23:35:27.835Z,98495.34
2022-10-12T23:39:31.779Z,98495.41
2022-10-12T23:43:34.718Z,98484.16
2022-10-12T23:47:39.103Z,98491.88
2022-10-12T23:51:41.839Z,98484.97
2022-10-12T23:55:44.213Z,98492.88
2022-10-12T23:59:46.197Z,98493.13
